createdAt,value
2024-01-18T00:00:35.612Z,92059.09
2024-01-18T00:03:03.748Z,92055.69
2024-01-18T00:05:30.903Z,92069.56
2024-01-18T00:07:57.918Z,92064.09
2024-01-18T00:10:28.291Z,92080.38
2024-01-18T00:12:55.846Z,92066.47
2024-01-18T00:15:23.161Z,92079.56
2024-01-18T00:17:50.736Z,92071.31
2024-01-18T00:20:18.021Z,92068.25
2024-01-18T00:22:44.982Z,92072.00
2024-01-18T00:25:12.036Z,92061.16
2024-01-18T00:27:39.100Z,92065.00
2024-01-18T00:30:07.032Z,92076.44
2024-01-18T00:32:34.168Z,92072.00
2024-01-18T00:35:01.179Z,92071.84
2024-01-18T00:37:28.171Z,92071.81
2024-01-18T00:39:55.133Z,92070.63
2024-01-18T00:42:22.316Z,92067.56
2024-01-18T00:44:49.321Z,92068.63
2024-01-18T00:47:16.360Z,92077.03
2024-01-18T00:49:44.992Z,92074.41
2024-01-18T00:52:11.980Z,92074.03
2024-01-18T00:54:38.954Z,92069.22
2024-01-18T00:57:06.229Z,92071.22
2024-01-18T00:59:33.309Z,92068.59
2024-01-18T01:02:00.302Z,92070.38
2024-01-18T01:04:27.321Z,92078.22
2024-01-18T01:06:54.412Z,92068.81
2024-01-18T01:09:21.592Z,92079.66
2024-01-18T01:11:48.637Z,92080.66
2024-01-18T01:14:15.694Z,92076.00
2024-01-18T01:16:42.638Z,92086.06
2024-01-18T01:19:11.233Z,92079.66
2024-01-18T01:21:38.433Z,92085.28
2024-01-18T01:24:05.560Z,92088.09
2024-01-18T01:26:32.524Z,92090.78
2024-01-18T01:28:59.578Z,92105.47
2024-01-18T01:31:26.571Z,92106.50
2024-01-18T01:33:53.628Z,92106.91
2024-01-18T01:36:20.696Z,92101.09
2024-01-18T01:38:47.637Z,92092.03
2024-01-18T01:41:15.167Z,92101.06
2024-01-18T01:43:59.170Z,92102.06
2024-01-18T01:46:27.691Z,92089.41
2024-01-18T01:49:03.246Z,92088.97
2024-01-18T01:51:36.565Z,92082.94
2024-01-18T01:54:07.415Z,92092.59
2024-01-18T01:56:36.104Z,92089.97
2024-01-18T01:59:05.261Z,92090.94
2024-01-18T02:01:32.313Z,92096.41
2024-01-18T02:03:59.603Z,92093.78
2024-01-18T02:06:27.144Z,92100.22
2024-01-18T02:08:54.196Z,92096.59
2024-01-18T02:11:21.857Z,92083.34
2024-01-18T02:13:50.155Z,92093.38
2024-01-18T02:16:17.380Z,92092.97
2024-01-18T02:18:44.658Z,92091.19
2024-01-18T02:21:11.758Z,92086.94
2024-01-18T02:23:42.393Z,92080.31
2024-01-18T02:26:09.567Z,92078.69
2024-01-18T02:28:36.570Z,92089.16
2024-01-18T02:31:03.828Z,92083.13
2024-01-18T02:33:31.011Z,92087.75
2024-01-18T02:35:58.327Z,92081.94
2024-01-18T02:38:26.551Z,92089.41
2024-01-18T02:40:53.615Z,92092.41
2024-01-18T02:43:20.861Z,92092.59
2024-01-18T02:45:47.950Z,92081.31
2024-01-18T02:48:15.126Z,92088.56
2024-01-18T02:50:43.255Z,92085.38
2024-01-18T02:53:10.339Z,92084.97
2024-01-18T02:55:37.655Z,92086.41
2024-01-18T02:58:06.114Z,92087.38
2024-01-18T03:00:33.174Z,92079.56
2024-01-18T03:03:00.375Z,92072.88
2024-01-18T03:05:27.469Z,92077.31
2024-01-18T03:07:54.569Z,92075.94
2024-01-18T03:10:23.535Z,92078.97
2024-01-18T03:12:50.634Z,92075.16
2024-01-18T03:15:17.760Z,92078.94
2024-01-18T03:17:44.937Z,92070.06
2024-01-18T03:20:12.484Z,92075.09
2024-01-18T03:22:41.243Z,92070.84
2024-01-18T03:25:09.289Z,92079.53
2024-01-18T03:27:36.631Z,92066.88
2024-01-18T03:30:04.119Z,92072.47
2024-01-18T03:32:31.142Z,92071.47
2024-01-18T03:34:58.146Z,92077.69
2024-01-18T03:37:25.108Z,92079.91
2024-01-18T03:39:52.341Z,92076.09
2024-01-18T03:42:19.618Z,92067.63
2024-01-18T03:44:46.659Z,92066.66
2024-01-18T03:47:13.592Z,92073.28
2024-01-18T03:49:43.122Z,92076.53
2024-01-18T03:52:11.952Z,92065.63
2024-01-18T03:54:40.528Z,92067.06
2024-01-18T03:57:07.574Z,92060.47
2024-01-18T03:59:34.545Z,92051.66
2024-01-18T04:02:02.128Z,92052.47
2024-01-18T04:04:29.286Z,92063.06
2024-01-18T04:06:56.387Z,92061.25
2024-01-18T04:09:23.462Z,92064.91
2024-01-18T04:11:50.932Z,92047.47
2024-01-18T04:14:17.880Z,92045.25
2024-01-18T04:16:45.204Z,92047.25
2024-01-18T04:19:12.274Z,92058.50
2024-01-18T04:21:39.801Z,92043.22
2024-01-18T04:24:07.228Z,92052.22
2024-01-18T04:26:35.560Z,92055.28
2024-01-18T04:29:02.607Z,92051.66
2024-01-18T04:31:29.711Z,92048.06
2024-01-18T04:33:57.645Z,92045.69
2024-01-18T04:36:24.684Z,92040.84
2024-01-18T04:38:52.828Z,92054.50
2024-01-18T04:41:19.825Z,92047.25
2024-01-18T04:43:46.794Z,92049.72
2024-01-18T04:46:13.944Z,92033.81
2024-01-18T04:48:41.971Z,92052.50
2024-01-18T04:51:09.066Z,92052.66
2024-01-18T04:53:37.339Z,92061.31
2024-01-18T04:56:05.098Z,92058.16
2024-01-18T04:58:32.460Z,92055.53
2024-01-18T05:00:59.542Z,92058.16
2024-01-18T05:03:26.809Z,92053.78
2024-01-18T05:05:54.324Z,92057.38
2024-01-18T05:08:21.797Z,92050.31
2024-01-18T05:10:48.779Z,92054.94
2024-01-18T05:13:15.766Z,92040.31
2024-01-18T05:15:42.867Z,92040.72
2024-01-18T05:18:10.741Z,92033.06
2024-01-18T05:20:37.809Z,92032.69
2024-01-18T05:23:04.987Z,92034.56
2024-01-18T05:25:31.942Z,92037.38
2024-01-18T05:27:58.878Z,92045.22
2024-01-18T05:30:25.932Z,92031.00
2024-01-18T05:32:53.122Z,92034.97
2024-01-18T05:35:20.148Z,92029.75
2024-01-18T05:37:47.221Z,92034.63
2024-01-18T05:40:14.174Z,92034.38
2024-01-18T05:42:41.352Z,92030.19
2024-01-18T05:45:08.512Z,92026.19
2024-01-18T05:47:36.216Z,92033.81
2024-01-18T05:50:03.999Z,92031.00
2024-01-18T05:52:31.066Z,92029.00
2024-01-18T05:55:00.238Z,92038.66
2024-01-18T05:57:27.416Z,92042.28
2024-01-18T05:59:54.385Z,92030.66
2024-01-18T06:02:21.842Z,92039.06
2024-01-18T06:04:49.126Z,92042.28
2024-01-18T06:07:16.193Z,92042.28
2024-01-18T06:09:43.233Z,92039.06
2024-01-18T06:12:10.538Z,92043.50
2024-01-18T06:14:37.546Z,92031.03
2024-01-18T06:17:04.811Z,92033.66
2024-01-18T06:19:31.982Z,92034.28
2024-01-18T06:21:59.074Z,92036.84
2024-01-18T06:24:27.086Z,92044.28
2024-01-18T06:26:55.688Z,92041.50
2024-01-18T06:29:27.921Z,92046.72
2024-01-18T06:31:55.065Z,92053.97
2024-01-18T06:34:22.223Z,92048.72
2024-01-18T06:36:49.353Z,92043.50
2024-01-18T06:39:17.281Z,92047.94
2024-01-18T06:41:44.561Z,92044.34
2024-01-18T06:44:12.146Z,92046.72
2024-01-18T06:46:39.190Z,92044.53
2024-01-18T06:49:06.298Z,92032.28
2024-01-18T06:51:33.419Z,92039.50
2024-01-18T06:54:00.577Z,92030.69
2024-01-18T06:56:28.198Z,92036.09
2024-01-18T06:58:55.158Z,92031.69
2024-01-18T07:01:22.274Z,92036.69
2024-01-18T07:03:49.351Z,92028.44
2024-01-18T07:06:16.418Z,92034.69
2024-01-18T07:08:43.464Z,92031.47
2024-01-18T07:11:10.406Z,92026.28
2024-01-18T07:13:37.446Z,92030.50
2024-01-18T07:16:04.811Z,92020.84
2024-01-18T07:18:31.825Z,92026.84
2024-01-18T07:20:58.811Z,92031.47
2024-01-18T07:23:26.489Z,92023.59
2024-01-18T07:25:53.509Z,92022.63
2024-01-18T07:28:23.144Z,92023.06
2024-01-18T07:30:50.391Z,92025.00
2024-01-18T07:33:18.077Z,92023.41
2024-01-18T07:35:45.159Z,92024.19
2024-01-18T07:38:12.128Z,92027.41
2024-01-18T07:40:39.168Z,92033.44
2024-01-18T07:43:07.228Z,92034.19
2024-01-18T07:45:34.284Z,92039.25
2024-01-18T07:48:01.899Z,92031.78
2024-01-18T07:50:35.219Z,92030.81
2024-01-18T07:53:04.605Z,92030.56
2024-01-18T07:55:32.213Z,92032.56
2024-01-18T07:57:59.349Z,92036.16
2024-01-18T08:00:27.071Z,92027.31
2024-01-18T08:02:54.708Z,92016.84
2024-01-18T08:05:22.939Z,92014.41
2024-01-18T08:07:50.509Z,92028.84
2024-01-18T08:10:17.675Z,92017.22
2024-01-18T08:12:46.095Z,92041.91
2024-01-18T08:15:13.933Z,92036.47
2024-01-18T08:17:41.233Z,92037.50
2024-01-18T08:20:15.110Z,92029.22
2024-01-18T08:22:43.875Z,92030.84
2024-01-18T08:25:14.846Z,92031.44
2024-01-18T08:27:44.228Z,92033.47
2024-01-18T08:30:12.060Z,92036.06
2024-01-18T08:32:39.240Z,92041.88
2024-01-18T08:35:08.481Z,92037.41
2024-01-18T08:37:37.326Z,92049.22
2024-01-18T08:40:06.048Z,92048.63
2024-01-18T08:42:33.175Z,92043.78
2024-01-18T08:45:00.221Z,92037.50
2024-01-18T08:47:28.098Z,92041.88
2024-01-18T08:49:55.341Z,92048.28
2024-01-18T08:52:24.085Z,92051.88
2024-01-18T08:54:53.268Z,92060.75
2024-01-18T08:57:20.600Z,92054.72
2024-01-18T08:59:47.668Z,92057.56
2024-01-18T09:02:23.130Z,92047.09
2024-01-18T09:04:52.337Z,92068.00
2024-01-18T09:07:20.075Z,92057.38
2024-01-18T09:09:48.274Z,92066.97
2024-01-18T09:12:15.476Z,92058.88
2024-01-18T09:14:46.039Z,92065.13
2024-01-18T09:17:13.065Z,92065.72
2024-01-18T09:19:40.361Z,92065.28
2024-01-18T09:22:07.551Z,92077.75
2024-01-18T09:24:34.632Z,92071.53
2024-01-18T09:27:01.668Z,92073.13
2024-01-18T09:29:28.751Z,92059.44
2024-01-18T09:31:57.906Z,92070.91
2024-01-18T09:34:25.236Z,92072.28
2024-01-18T09:36:52.279Z,92074.69
2024-01-18T09:39:19.680Z,92065.66
2024-01-18T09:41:52.036Z,92078.09
2024-01-18T09:44:28.025Z,92083.13
2024-01-18T09:46:55.796Z,92083.50
2024-01-18T09:49:22.953Z,92087.09
2024-01-18T09:51:52.288Z,92092.13
2024-01-18T09:54:20.043Z,92094.16
2024-01-18T09:56:47.618Z,92096.78
2024-01-18T09:59:17.969Z,92101.22
2024-01-18T10:01:46.186Z,92106.38
2024-01-18T10:04:14.389Z,92110.41
2024-01-18T10:06:42.650Z,92106.94
2024-01-18T10:09:12.404Z,92115.53
2024-01-18T10:11:40.147Z,92112.31
2024-01-18T10:14:08.063Z,92106.81
2024-01-18T10:16:38.366Z,92096.88
2024-01-18T10:19:08.399Z,92100.88
2024-01-18T10:21:36.556Z,92096.50
2024-01-18T10:24:04.995Z,92100.88
2024-01-18T10:26:32.939Z,92105.03
2024-01-18T10:29:03.183Z,92116.69
2024-01-18T10:31:32.774Z,92103.66
2024-01-18T10:34:00.045Z,92113.06
2024-01-18T10:36:27.848Z,92106.13
2024-01-18T10:38:55.089Z,92091.38
2024-01-18T10:41:22.299Z,92108.81
2024-01-18T10:43:49.737Z,92116.38
2024-01-18T10:46:17.153Z,92110.22
2024-01-18T10:48:50.330Z,92107.66
2024-01-18T10:51:17.600Z,92107.94
2024-01-18T10:53:46.509Z,92105.19
2024-01-18T10:56:13.887Z,92105.03
2024-01-18T10:58:41.254Z,92110.50
2024-01-18T11:01:09.402Z,92113.59
2024-01-18T11:03:37.271Z,92115.66
2024-01-18T11:06:11.294Z,92115.44
2024-01-18T11:08:40.201Z,92113.75
2024-01-18T11:11:08.107Z,92109.53
2024-01-18T11:13:36.732Z,92098.91
2024-01-18T11:16:05.517Z,92108.78
2024-01-18T11:18:35.801Z,92093.63
2024-01-18T11:21:11.040Z,92093.53
2024-01-18T11:23:41.010Z,92110.56
2024-01-18T11:26:19.416Z,92099.75
2024-01-18T11:28:46.540Z,92103.41
2024-01-18T11:31:13.723Z,92093.38
2024-01-18T11:33:41.686Z,92100.19
2024-01-18T11:36:15.247Z,92104.44
2024-01-18T11:38:47.418Z,92109.34
2024-01-18T11:41:24.491Z,92103.31
2024-01-18T11:43:56.776Z,92110.72
2024-01-18T11:46:42.996Z,92099.22
2024-01-18T11:49:12.149Z,92104.69
2024-01-18T11:51:39.933Z,92107.38
2024-01-18T11:54:07.540Z,92110.94
2024-01-18T11:56:38.737Z,92118.50
2024-01-18T11:59:06.368Z,92121.59
2024-01-18T12:01:33.562Z,92131.75
2024-01-18T12:04:00.938Z,92139.19
2024-01-18T12:06:30.464Z,92146.25
2024-01-18T12:08:58.302Z,92146.34
2024-01-18T12:11:26.604Z,92154.34
2024-01-18T12:13:53.671Z,92150.69
2024-01-18T12:16:22.277Z,92197.91
2024-01-18T12:18:51.644Z,92218.88
2024-01-18T12:21:20.673Z,92229.56
2024-01-18T12:23:49.086Z,92243.38
2024-01-18T12:26:17.088Z,92253.84
2024-01-18T12:28:44.185Z,92268.44
2024-01-18T12:31:11.228Z,92267.72
2024-01-18T12:33:38.974Z,92283.34
2024-01-18T12:36:09.806Z,92291.31
2024-01-18T12:38:37.793Z,92288.94
2024-01-18T12:41:05.478Z,92281.84
2024-01-18T12:43:32.576Z,92282.88
2024-01-18T12:45:59.877Z,92293.56
2024-01-18T12:48:29.089Z,92304.75
2024-01-18T12:50:56.417Z,92308.25
2024-01-18T12:53:25.161Z,92320.66
2024-01-18T12:55:52.812Z,92319.97
2024-01-18T12:58:19.805Z,92318.44
2024-01-18T13:00:53.599Z,92320.41
2024-01-18T13:03:22.528Z,92323.50
2024-01-18T13:05:50.426Z,92318.69
2024-01-18T13:08:18.019Z,92317.88
2024-01-18T13:10:48.538Z,92309.34
2024-01-18T13:13:16.537Z,92335.94
2024-01-18T13:15:44.927Z,92335.50
2024-01-18T13:18:13.866Z,92342.94
2024-01-18T13:20:45.172Z,92337.25
2024-01-18T13:23:13.581Z,92353.88
2024-01-18T13:25:40.609Z,92360.59
2024-01-18T13:28:07.678Z,92371.28
2024-01-18T13:30:34.874Z,92379.47
2024-01-18T13:33:07.044Z,92382.75
2024-01-18T13:35:37.062Z,92381.00
2024-01-18T13:38:04.529Z,92397.31
2024-01-18T13:40:31.615Z,92414.88
2024-01-18T13:42:58.789Z,92425.81
2024-01-18T13:45:25.833Z,92437.63
2024-01-18T13:47:53.207Z,92441.94
2024-01-18T13:50:23.328Z,92455.56
2024-01-18T13:52:50.706Z,92469.50
2024-01-18T13:55:18.146Z,92468.66
2024-01-18T13:57:46.595Z,92484.78
2024-01-18T14:00:14.780Z,92492.88
2024-01-18T14:02:41.874Z,92494.69
2024-01-18T14:05:09.216Z,92515.47
2024-01-18T14:07:36.504Z,92533.91
2024-01-18T14:10:04.176Z,92533.81
2024-01-18T14:12:31.219Z,92520.53
2024-01-18T14:14:58.264Z,92522.72
2024-01-18T14:17:25.280Z,92538.97
2024-01-18T14:19:52.353Z,92557.91
2024-01-18T14:22:19.421Z,92567.53
2024-01-18T14:24:46.453Z,92562.06
2024-01-18T14:27:13.485Z,92570.97
2024-01-18T14:29:40.977Z,92579.25
2024-01-18T14:32:08.108Z,92595.66
2024-01-18T14:34:35.278Z,92607.97
2024-01-18T14:37:04.001Z,92625.81
2024-01-18T14:39:32.425Z,92632.16
2024-01-18T14:41:59.412Z,92638.63
2024-01-18T14:44:26.526Z,92651.13
2024-01-18T14:46:53.666Z,92684.34
2024-01-18T14:49:21.178Z,92676.44
2024-01-18T14:51:48.458Z,92696.81
2024-01-18T14:54:15.590Z,92706.53
2024-01-18T14:56:47.155Z,92701.84
2024-01-18T14:59:16.975Z,92714.31
2024-01-18T15:01:44.507Z,92723.38
2024-01-18T15:04:11.965Z,92727.41
2024-01-18T15:06:39.020Z,92728.19
2024-01-18T15:09:06.681Z,92735.63
2024-01-18T15:11:33.713Z,92746.75
2024-01-18T15:14:00.718Z,92754.81
2024-01-18T15:16:27.706Z,92769.03
2024-01-18T15:19:03.223Z,92774.34
2024-01-18T15:21:35.168Z,92795.22
2024-01-18T15:24:02.394Z,92816.09
2024-01-18T15:26:29.390Z,92823.00
2024-01-18T15:28:56.416Z,92842.25
2024-01-18T15:31:31.048Z,92853.38
2024-01-18T15:33:59.272Z,92856.88
2024-01-18T15:36:26.583Z,92857.13
2024-01-18T15:38:53.628Z,92889.56
2024-01-18T15:41:20.709Z,92892.75
2024-01-18T15:43:47.952Z,92916.03
2024-01-18T15:46:17.043Z,92921.50
2024-01-18T15:48:44.103Z,92932.16
2024-01-18T15:51:13.729Z,92948.69
2024-01-18T15:53:40.837Z,92959.94
2024-01-18T15:56:08.241Z,92967.84
2024-01-18T15:58:35.288Z,92979.22
2024-01-18T16:01:02.992Z,92988.56
2024-01-18T16:03:30.371Z,93004.41
2024-01-18T16:05:57.460Z,93000.91
2024-01-18T16:08:24.511Z,93032.16
2024-01-18T16:10:51.526Z,93040.19
2024-01-18T16:13:18.818Z,93048.03
2024-01-18T16:15:45.954Z,93059.94
2024-01-18T16:18:13.194Z,93064.97
2024-01-18T16:20:40.197Z,93085.66
2024-01-18T16:23:07.724Z,93116.16
2024-01-18T16:25:34.830Z,93111.41
2024-01-18T16:28:01.811Z,93131.03
2024-01-18T16:30:31.139Z,93136.19
2024-01-18T16:32:58.944Z,93137.16
2024-01-18T16:35:25.967Z,93146.53
2024-01-18T16:37:53.236Z,93149.25
2024-01-18T16:40:20.413Z,93141.63
2024-01-18T16:42:47.531Z,93149.53
2024-01-18T16:45:15.010Z,93155.78
2024-01-18T16:47:42.188Z,93158.91
2024-01-18T16:50:10.052Z,93174.44
2024-01-18T16:52:37.210Z,93177.56
2024-01-18T16:55:04.936Z,93179.34
2024-01-18T16:57:33.456Z,93174.56
2024-01-18T17:00:01.404Z,93189.41
2024-01-18T17:02:28.590Z,93190.38
2024-01-18T17:04:55.952Z,93190.06
2024-01-18T17:07:23.392Z,93202.06
2024-01-18T17:09:50.473Z,93197.28
2024-01-18T17:12:17.786Z,93213.19
2024-01-18T17:14:45.786Z,93234.94
2024-01-18T17:17:13.715Z,93246.34
2024-01-18T17:19:40.823Z,93247.34
2024-01-18T17:22:10.943Z,93255.63
2024-01-18T17:24:37.981Z,93246.91
2024-01-18T17:27:05.367Z,93244.19
2024-01-18T17:29:32.415Z,93239.72
2024-01-18T17:31:59.408Z,93250.03
2024-01-18T17:34:26.392Z,93256.19
2024-01-18T17:36:54.526Z,93276.84
2024-01-18T17:39:21.643Z,93277.66
2024-01-18T17:41:48.760Z,93285.53
2024-01-18T17:44:15.920Z,93283.06
2024-01-18T17:46:44.479Z,93300.34
2024-01-18T17:49:16.031Z,93291.78
2024-01-18T17:51:43.136Z,93296.53
2024-01-18T17:54:10.115Z,93301.56
2024-01-18T17:56:37.273Z,93319.09
2024-01-18T17:59:04.324Z,93332.56
2024-01-18T18:01:31.329Z,93334.72
2024-01-18T18:03:58.323Z,93342.16
2024-01-18T18:06:25.323Z,93356.19
2024-01-18T18:08:52.349Z,93363.66
2024-01-18T18:11:19.493Z,93382.41
2024-01-18T18:13:46.658Z,93380.31
2024-01-18T18:16:14.198Z,93392.28
2024-01-18T18:18:41.792Z,93398.78
2024-01-18T18:21:10.249Z,93409.56
2024-01-18T18:23:37.247Z,93405.44
2024-01-18T18:26:08.262Z,93429.53
2024-01-18T18:28:36.312Z,93402.59
2024-01-18T18:31:03.362Z,93419.72
2024-01-18T18:33:30.453Z,93426.22
2024-01-18T18:35:57.486Z,93426.16
2024-01-18T18:38:30.330Z,93438.38
2024-01-18T18:41:00.729Z,93443.78
2024-01-18T18:43:30.168Z,93452.22
2024-01-18T18:45:58.402Z,93456.31
2024-01-18T18:48:26.294Z,93462.28
2024-01-18T18:50:54.382Z,93466.31
2024-01-18T18:53:22.020Z,93469.75
2024-01-18T18:55:49.271Z,93474.75
2024-01-18T18:58:17.516Z,93481.91
2024-01-18T19:00:46.816Z,93490.63
2024-01-18T19:03:14.004Z,93488.16
2024-01-18T19:05:41.356Z,93503.81
2024-01-18T19:08:08.558Z,93502.19
2024-01-18T19:10:35.580Z,93503.41
2024-01-18T19:13:02.676Z,93513.22
2024-01-18T19:15:29.751Z,93523.53
2024-01-18T19:17:57.060Z,93513.22
2024-01-18T19:20:24.253Z,93531.00
2024-01-18T19:22:51.277Z,93542.53
2024-01-18T19:25:18.398Z,93536.16
2024-01-18T19:27:45.713Z,93546.25
2024-01-18T19:30:13.417Z,93545.75
2024-01-18T19:32:41.352Z,93546.56
2024-01-18T19:35:09.119Z,93565.09
2024-01-18T19:37:37.994Z,93572.00
2024-01-18T19:40:07.790Z,93572.25
2024-01-18T19:42:35.621Z,93572.69
2024-01-18T19:45:04.371Z,93586.31
2024-01-18T19:47:31.465Z,93596.16
2024-01-18T19:49:58.493Z,93603.81
2024-01-18T19:52:25.459Z,93604.72
2024-01-18T19:54:52.475Z,93621.06
2024-01-18T19:57:19.787Z,93620.47
2024-01-18T19:59:47.032Z,93634.66
2024-01-18T20:02:14.205Z,93642.53
2024-01-18T20:04:42.243Z,93655.53
2024-01-18T20:07:09.397Z,93669.41
2024-01-18T20:09:36.646Z,93668.81
2024-01-18T20:12:04.587Z,93674.81
2024-01-18T20:14:31.725Z,93674.81
2024-01-18T20:16:59.613Z,93671.53
2024-01-18T20:19:26.714Z,93675.75
2024-01-18T20:21:55.620Z,93677.56
2024-01-18T20:24:23.005Z,93674.13
2024-01-18T20:26:50.338Z,93690.19
2024-01-18T20:29:17.559Z,93691.00
2024-01-18T20:31:44.644Z,93689.97
2024-01-18T20:34:12.295Z,93693.47
2024-01-18T20:36:39.549Z,93702.72
2024-01-18T20:39:09.148Z,93705.31
2024-01-18T20:41:37.109Z,93717.78
2024-01-18T20:44:04.284Z,93717.19
2024-01-18T20:46:33.495Z,93723.63
2024-01-18T20:49:00.700Z,93726.59
2024-01-18T20:51:27.736Z,93728.81
2024-01-18T20:53:55.115Z,93731.16
2024-01-18T20:56:22.236Z,93740.69
2024-01-18T20:58:50.935Z,93744.66
2024-01-18T21:01:18.465Z,93750.84
2024-01-18T21:03:45.629Z,93756.97
2024-01-18T21:06:12.912Z,93758.59
2024-01-18T21:08:40.074Z,93762.94
2024-01-18T21:11:07.208Z,93766.13
2024-01-18T21:13:34.342Z,93766.13
2024-01-18T21:16:01.580Z,93768.22
2024-01-18T21:18:28.570Z,93762.84
2024-01-18T21:20:55.810Z,93762.34
2024-01-18T21:23:23.560Z,93766.00
2024-01-18T21:25:50.689Z,93767.78
2024-01-18T21:28:17.721Z,93778.22
2024-01-18T21:30:44.711Z,93784.88
2024-01-18T21:33:12.973Z,93783.75
2024-01-18T21:35:40.111Z,93781.00
2024-01-18T21:38:07.119Z,93800.94
2024-01-18T21:40:34.085Z,93801.91
2024-01-18T21:43:01.256Z,93796.03
2024-01-18T21:45:28.478Z,93809.88
2024-01-18T21:47:58.015Z,93809.28
2024-01-18T21:50:26.639Z,93814.91
2024-01-18T21:52:54.209Z,93816.22
2024-01-18T21:55:21.503Z,93823.47
2024-01-18T21:57:48.514Z,93834.16
2024-01-18T22:00:15.929Z,93837.22
2024-01-18T22:02:43.344Z,93836.38
2024-01-18T22:05:10.636Z,93835.34
2024-01-18T22:07:37.705Z,93831.09
2024-01-18T22:10:05.360Z,93849.97
2024-01-18T22:12:32.349Z,93852.69
2024-01-18T22:14:59.449Z,93847.53
2024-01-18T22:17:26.555Z,93858.41
2024-01-18T22:20:01.225Z,93864.91
2024-01-18T22:22:31.891Z,93861.81
2024-01-18T22:24:59.655Z,93870.28
2024-01-18T22:27:28.079Z,93869.09
2024-01-18T22:29:55.528Z,93864.75
2024-01-18T22:32:23.731Z,93871.69
2024-01-18T22:34:52.591Z,93863.03
2024-01-18T22:37:20.703Z,93861.34
2024-01-18T22:39:47.679Z,93860.88
2024-01-18T22:42:14.935Z,93869.56
2024-01-18T22:44:43.672Z,93868.38
2024-01-18T22:47:10.874Z,93879.88
2024-01-18T22:49:38.177Z,93887.84
2024-01-18T22:52:05.439Z,93893.00
2024-01-18T22:54:32.551Z,93892.78
2024-01-18T22:57:00.245Z,93894.41
2024-01-18T22:59:27.641Z,93899.00
2024-01-18T23:01:54.844Z,93900.75
2024-01-18T23:04:25.215Z,93900.88
2024-01-18T23:06:52.305Z,93902.50
2024-01-18T23:09:19.302Z,93905.91
2024-01-18T23:11:46.374Z,93912.00
2024-01-18T23:14:13.519Z,93915.88
2024-01-18T23:16:40.510Z,93930.06
2024-01-18T23:19:07.955Z,93941.09
2024-01-18T23:21:35.034Z,93937.81
2024-01-18T23:24:03.546Z,93935.34
2024-01-18T23:26:30.606Z,93936.63
2024-01-18T23:28:57.589Z,93929.34
2024-01-18T23:31:24.627Z,93945.53
2024-01-18T23:33:52.718Z,93946.25
2024-01-18T23:36:20.588Z,93958.44
2024-01-18T23:38:47.764Z,93950.91
2024-01-18T23:41:14.902Z,93956.78
2024-01-18T23:43:41.894Z,93951.63
2024-01-18T23:46:10.088Z,93971.09
2024-01-18T23:48:37.085Z,93969.38
2024-01-18T23:51:04.171Z,93970.19
2024-01-18T23:53:31.671Z,93980.28
2024-01-18T23:55:59.026Z,93982.72
2024-01-18T23:58:26.204Z,93977.66
